createdAt,value
2023-07-25T00:02:03.723Z,4.22
2023-07-25T00:04:09.536Z,3.63
2023-07-25T00:06:17.909Z,3.63
2023-07-25T00:08:20.353Z,4.53
2023-07-25T00:10:25.311Z,3.60
2023-07-25T00:12:30.404Z,3.95
2023-07-25T00:14:36.214Z,3.78
2023-07-25T00:16:41.526Z,3.67
2023-07-25T00:18:46.443Z,3.30
2023-07-25T00:20:48.965Z,3.20
2023-07-25T00:22:56.622Z,3.53
2023-07-25T00:25:01.550Z,3.63
2023-07-25T00:27:06.749Z,3.50
2023-07-25T00:29:12.007Z,3.50
2023-07-25T00:31:16.899Z,3.65
2023-07-25T00:33:21.871Z,3.50
2023-07-25T00:35:26.825Z,3.80
2023-07-25T00:37:32.826Z,4.55
2023-07-25T00:39:40.331Z,3.65
2023-07-25T00:41:45.697Z,3.63
2023-07-25T00:43:50.837Z,4.15
2023-07-25T00:45:56.224Z,3.83
2023-07-25T00:48:01.391Z,3.38
2023-07-25T00:50:06.720Z,3.85
2023-07-25T00:52:12.264Z,4.10
2023-07-25T00:54:17.774Z,3.63
2023-07-25T00:56:25.671Z,3.63
2023-07-25T00:58:31.810Z,4.35
2023-07-25T01:00:36.735Z,3.97
2023-07-25T01:02:39.861Z,3.90
2023-07-25T01:04:45.964Z,3.35
2023-07-25T01:06:51.889Z,3.60
2023-07-25T01:08:58.338Z,3.28
2023-07-25T01:11:03.360Z,3.42
2023-07-25T01:13:10.946Z,3.53
2023-07-25T01:15:16.033Z,3.63
2023-07-25T01:17:24.687Z,3.50
2023-07-25T01:19:32.437Z,3.97
2023-07-25T01:21:37.352Z,3.53
2023-07-25T01:23:40.440Z,3.90
2023-07-25T01:25:52.690Z,3.47
2023-07-25T01:27:55.313Z,3.33
2023-07-25T01:30:00.377Z,3.10
2023-07-25T01:32:05.529Z,3.38
2023-07-25T01:34:10.500Z,3.35
2023-07-25T01:36:15.566Z,3.20
2023-07-25T01:38:20.997Z,3.72
2023-07-25T01:40:25.950Z,3.60
2023-07-25T01:42:33.781Z,3.50
2023-07-25T01:44:38.925Z,2.72
2023-07-25T01:46:44.913Z,3.15
2023-07-25T01:48:50.292Z,3.45
2023-07-25T01:50:55.332Z,3.65
2023-07-25T01:53:00.494Z,3.53
2023-07-25T01:55:05.628Z,3.25
2023-07-25T01:57:10.682Z,3.60
2023-07-25T01:59:18.252Z,3.75
2023-07-25T02:01:23.388Z,3.20
2023-07-25T02:03:26.008Z,3.63
2023-07-25T02:07:36.616Z,3.25
2023-07-25T02:09:41.563Z,3.53
2023-07-25T02:11:46.556Z,3.13
2023-07-25T02:13:51.628Z,3.60
2023-07-25T02:15:59.296Z,3.78
2023-07-25T02:18:05.057Z,4.32
2023-07-25T02:20:11.657Z,4.72
2023-07-25T02:22:16.710Z,4.00
2023-07-25T02:24:21.647Z,4.20
2023-07-25T02:26:24.143Z,3.63
2023-07-25T02:28:29.070Z,4.03
2023-07-25T02:30:31.412Z,3.85
2023-07-25T02:32:39.033Z,4.05
2023-07-25T02:34:44.097Z,4.00
2023-07-25T02:36:49.077Z,3.28
2023-07-25T02:38:54.887Z,3.88
2023-07-25T02:41:00.102Z,3.45
2023-07-25T02:43:06.725Z,3.30
2023-07-25T02:45:12.613Z,3.42
2023-07-25T02:47:17.613Z,3.30
2023-07-25T02:49:25.153Z,3.00
2023-07-25T02:51:30.781Z,2.88
2023-07-25T02:53:35.970Z,2.95
2023-07-25T02:55:41.311Z,2.95
2023-07-25T02:57:46.326Z,3.47
2023-07-25T02:59:51.280Z,2.85
2023-07-25T03:01:56.534Z,3.03
2023-07-25T03:04:01.803Z,2.85
2023-07-25T03:06:09.434Z,3.38
2023-07-25T03:08:11.870Z,3.25
2023-07-25T03:12:21.981Z,3.00
2023-07-25T03:14:26.906Z,3.05
2023-07-25T03:16:32.100Z,3.25
2023-07-25T03:18:37.146Z,3.38
2023-07-25T03:20:42.130Z,3.80
2023-07-25T03:22:49.853Z,2.55
2023-07-25T03:24:54.865Z,3.25
2023-07-25T03:26:59.892Z,3.28
2023-07-25T03:29:04.865Z,3.40
2023-07-25T03:31:10.921Z,3.00
2023-07-25T03:33:16.536Z,2.80
2023-07-25T03:35:18.865Z,2.85
2023-07-25T03:37:23.835Z,2.97
2023-07-25T03:39:31.700Z,2.90
2023-07-25T03:41:36.790Z,3.28
2023-07-25T03:43:41.900Z,3.67
2023-07-25T03:45:46.992Z,3.78
2023-07-25T03:47:52.005Z,3.17
2023-07-25T03:49:56.990Z,3.13
2023-07-25T03:52:01.950Z,3.22
2023-07-25T03:54:06.983Z,2.97
2023-07-25T03:56:14.527Z,3.08
2023-07-25T03:58:19.782Z,3.28
2023-07-25T04:00:25.680Z,3.03
2023-07-25T04:02:30.848Z,2.88
2023-07-25T04:04:35.888Z,2.58
2023-07-25T04:06:41.772Z,2.65
2023-07-25T04:08:46.840Z,2.92
2023-07-25T04:10:51.917Z,2.95
2023-07-25T04:12:59.535Z,2.92
2023-07-25T04:15:04.620Z,3.17
2023-07-25T04:17:09.569Z,2.45
2023-07-25T04:19:14.607Z,2.92
2023-07-25T04:21:19.967Z,3.28
2023-07-25T04:23:23.369Z,2.53
2023-07-25T04:25:28.280Z,2.88
2023-07-25T04:27:34.652Z,2.95
2023-07-25T04:29:42.338Z,3.25
2023-07-25T04:31:47.606Z,2.53
2023-07-25T04:33:52.508Z,3.13
2023-07-25T04:35:57.475Z,2.80
2023-07-25T04:38:02.349Z,2.60
2023-07-25T04:40:08.713Z,2.85
2023-07-25T04:42:13.617Z,3.03
2023-07-25T04:44:18.785Z,2.60
2023-07-25T04:46:26.396Z,2.95
2023-07-25T04:48:32.512Z,2.95
2023-07-25T04:50:37.482Z,3.38
2023-07-25T04:52:43.152Z,2.60
2023-07-25T04:54:48.159Z,3.17
2023-07-25T04:56:53.417Z,3.10
2023-07-25T04:58:58.558Z,2.72
2023-07-25T05:01:03.438Z,2.60
2023-07-25T05:03:11.095Z,2.50
2023-07-25T05:05:16.480Z,2.42
2023-07-25T05:07:21.600Z,2.70
2023-07-25T05:09:26.665Z,2.95
2023-07-25T05:11:31.861Z,2.97
2023-07-25T05:13:37.182Z,3.30
2023-07-25T05:15:42.059Z,3.65
2023-07-25T05:17:47.070Z,2.92
2023-07-25T05:19:54.556Z,2.95
2023-07-25T05:21:59.854Z,3.30
2023-07-25T05:24:05.663Z,3.22
2023-07-25T05:26:10.546Z,3.05
2023-07-25T05:28:15.355Z,3.00
2023-07-25T05:30:20.375Z,2.90
2023-07-25T05:32:25.884Z,3.17
2023-07-25T05:34:30.792Z,3.35
2023-07-25T05:36:38.445Z,2.72
2023-07-25T05:38:43.673Z,3.10
2023-07-25T05:40:51.314Z,3.03
2023-07-25T05:42:57.086Z,2.53
2023-07-25T05:45:02.758Z,2.60
2023-07-25T05:47:08.428Z,2.40
2023-07-25T05:49:13.404Z,2.50
2023-07-25T05:51:15.672Z,2.63
2023-07-25T05:53:23.345Z,3.08
2023-07-25T05:55:28.197Z,2.72
2023-07-25T05:57:33.122Z,2.88
2023-07-25T05:59:38.128Z,2.70
2023-07-25T06:01:43.383Z,2.47
2023-07-25T06:03:48.422Z,2.45
2023-07-25T06:05:55.809Z,2.78
2023-07-25T12:02:12.203Z,1.23
2023-07-25T12:04:18.930Z,1.23
2023-07-25T12:06:28.508Z,1.40
2023-07-25T12:08:35.328Z,1.70
2023-07-25T12:10:41.552Z,1.60
2023-07-25T12:12:49.922Z,1.13
2023-07-25T12:14:59.599Z,0.85
2023-07-25T12:17:07.242Z,2.22
2023-07-25T12:19:17.021Z,1.38
2023-07-25T12:21:24.304Z,1.20
2023-07-25T12:23:32.962Z,1.70
2023-07-25T12:25:40.374Z,1.33
2023-07-25T12:27:48.888Z,1.50
2023-07-25T12:29:54.058Z,1.55
2023-07-25T12:31:59.279Z,1.48
2023-07-25T12:34:04.231Z,1.30
2023-07-25T12:36:11.943Z,1.65
2023-07-25T12:38:14.312Z,1.30
2023-07-25T12:40:19.385Z,1.42
2023-07-25T12:42:21.780Z,1.48
2023-07-25T12:44:26.684Z,1.50
2023-07-25T12:46:31.897Z,1.70
2023-07-25T12:48:34.853Z,1.83
2023-07-25T12:50:40.537Z,1.70
2023-07-25T12:52:48.160Z,1.65
2023-07-25T12:54:53.132Z,1.60
2023-07-25T12:56:58.026Z,1.65
2023-07-25T12:59:03.363Z,1.33
2023-07-25T13:01:08.746Z,1.40
2023-07-25T13:03:14.066Z,1.10
2023-07-25T13:05:19.146Z,1.52
2023-07-25T13:07:24.175Z,1.50
2023-07-25T13:09:31.666Z,1.40
2023-07-25T13:11:36.854Z,1.60
2023-07-25T13:13:41.968Z,1.30
2023-07-25T13:15:47.059Z,1.50
2023-07-25T13:17:52.122Z,1.58
2023-07-25T13:19:57.167Z,1.55
2023-07-25T13:22:02.185Z,1.67
2023-07-25T13:24:07.438Z,1.50
2023-07-25T13:26:15.113Z,1.70
2023-07-25T13:28:20.474Z,1.30
2023-07-25T13:30:25.838Z,1.50
2023-07-25T13:32:32.121Z,1.58
2023-07-25T13:34:37.113Z,1.80
2023-07-25T13:36:42.342Z,1.55
2023-07-25T13:38:47.313Z,1.33
2023-07-25T13:40:54.306Z,1.80
2023-07-25T13:43:01.916Z,1.75
2023-07-25T13:45:07.663Z,1.73
2023-07-25T13:47:12.562Z,1.95
2023-07-25T13:49:17.741Z,1.60
2023-07-25T13:51:22.784Z,1.45
2023-07-25T13:53:27.754Z,1.77
2023-07-25T13:55:32.850Z,1.20
2023-07-25T13:57:38.856Z,1.50
2023-07-25T13:59:46.493Z,1.25
2023-07-25T14:01:48.992Z,1.30
2023-07-25T14:03:54.805Z,1.48
2023-07-25T14:05:59.974Z,1.55
2023-07-25T14:08:08.650Z,1.63
2023-07-25T14:10:20.121Z,1.38
2023-07-25T14:12:25.213Z,1.08
2023-07-25T14:14:30.340Z,1.40
2023-07-25T14:16:37.880Z,1.60
2023-07-25T14:18:42.842Z,1.77
2023-07-25T14:20:48.755Z,1.20
2023-07-25T14:22:59.836Z,1.23
2023-07-25T14:25:10.877Z,1.10
2023-07-25T14:27:17.724Z,1.30
2023-07-25T14:29:23.823Z,1.45
2023-07-25T14:31:29.514Z,1.20
2023-07-25T14:33:37.167Z,1.20
2023-07-25T14:35:42.893Z,1.65
2023-07-25T14:37:59.709Z,1.45
2023-07-25T14:40:24.743Z,1.50
2023-07-25T14:42:30.246Z,1.33
2023-07-25T14:44:42.375Z,1.52
2023-07-25T14:47:07.761Z,1.30
2023-07-25T14:49:22.669Z,1.15
2023-07-25T14:51:36.814Z,1.30
2023-07-25T14:53:42.034Z,1.20
2023-07-25T14:55:54.208Z,1.13
2023-07-25T14:58:02.157Z,1.17
2023-07-25T15:00:12.652Z,1.33
2023-07-25T15:02:18.901Z,1.52
2023-07-25T15:04:32.338Z,1.40
2023-07-25T15:06:42.662Z,1.63
2023-07-25T15:08:48.348Z,1.67
2023-07-25T15:11:09.791Z,1.48
2023-07-25T15:13:18.189Z,1.50
2023-07-25T15:15:34.005Z,1.27
2023-07-25T15:17:39.456Z,1.60
2023-07-25T15:19:55.129Z,1.73
2023-07-25T15:22:09.845Z,1.35
2023-07-25T15:24:17.495Z,1.40
2023-07-25T15:26:55.784Z,1.52
2023-07-25T15:29:07.305Z,1.10
2023-07-25T15:31:17.791Z,0.77
2023-07-25T15:33:24.042Z,0.82
2023-07-25T15:35:32.038Z,0.80
2023-07-25T15:37:38.893Z,1.02
2023-07-25T15:39:46.628Z,0.90
2023-07-25T15:41:51.805Z,0.95
2023-07-25T15:43:56.796Z,0.60
2023-07-25T15:46:01.931Z,0.80
2023-07-25T15:48:07.859Z,0.95
2023-07-25T15:50:21.394Z,1.00
2023-07-25T15:52:32.043Z,1.50
2023-07-25T15:54:53.424Z,1.00
2023-07-25T15:57:13.990Z,1.65
2023-07-25T15:59:19.404Z,1.27
2023-07-25T16:01:24.715Z,0.80
2023-07-25T16:03:29.909Z,1.00
2023-07-25T16:05:35.147Z,1.67
2023-07-25T16:07:43.026Z,1.08
2023-07-25T16:12:32.603Z,1.00
2023-07-25T16:14:38.391Z,1.67
2023-07-25T16:16:58.789Z,1.20
2023-07-25T16:19:04.256Z,1.10
2023-07-25T16:21:21.292Z,1.08
2023-07-25T16:23:35.633Z,1.10
2023-07-25T16:25:49.636Z,1.20
2023-07-25T16:30:26.601Z,0.90
2023-07-25T16:32:45.296Z,1.30
2023-07-25T16:34:54.326Z,1.20
2023-07-25T16:37:14.248Z,1.00
2023-07-25T16:39:28.848Z,1.50
2023-07-25T16:41:34.319Z,1.52
2023-07-25T16:43:37.038Z,1.10
2023-07-25T16:45:42.163Z,1.60
2023-07-25T16:47:52.344Z,1.02
2023-07-25T16:50:31.619Z,1.10
2023-07-25T16:52:39.642Z,0.98
2023-07-25T16:54:53.344Z,1.10
2023-07-25T16:56:59.084Z,0.98
2023-07-25T16:59:08.529Z,1.27
2023-07-25T17:01:14.325Z,1.10
2023-07-25T17:03:24.873Z,1.00
2023-07-25T17:05:42.865Z,1.40
2023-07-25T17:07:55.873Z,1.33
2023-07-25T17:10:20.136Z,1.30
2023-07-25T17:12:34.484Z,0.88
2023-07-25T17:14:39.550Z,1.10
2023-07-25T17:16:47.600Z,1.52
2023-07-25T17:19:02.572Z,1.10
2023-07-25T17:21:11.398Z,1.40
2023-07-25T17:23:22.578Z,1.40
2023-07-25T17:25:38.888Z,1.45
2023-07-25T17:27:52.099Z,1.17
2023-07-25T17:29:58.581Z,1.30
2023-07-25T17:32:14.928Z,1.20
2023-07-25T17:34:37.819Z,1.13
2023-07-25T17:36:51.590Z,1.13
2023-07-25T17:39:08.089Z,1.17
2023-07-25T17:41:21.799Z,1.08
2023-07-25T17:43:37.624Z,1.05
2023-07-25T17:45:51.287Z,1.00
2023-07-25T17:47:58.646Z,1.15
2023-07-25T17:50:04.301Z,1.15
2023-07-25T17:52:21.994Z,0.82
2023-07-25T17:54:31.084Z,1.05
2023-07-25T17:56:43.936Z,1.02
2023-07-25T18:01:15.049Z,0.80
2023-07-25T18:03:25.642Z,1.13
2023-07-25T18:05:34.369Z,1.30
2023-07-25T18:07:41.656Z,1.20
2023-07-25T18:09:47.359Z,1.20
2023-07-25T18:11:56.556Z,1.10
2023-07-25T18:14:10.064Z,1.00
2023-07-25T18:16:20.779Z,0.85
2023-07-25T18:18:28.503Z,0.82
2023-07-25T18:20:33.782Z,1.02
2023-07-25T18:22:45.955Z,0.98
2023-07-25T18:24:53.120Z,1.17
2023-07-25T18:27:01.223Z,1.00
2023-07-25T18:29:11.508Z,1.00
2023-07-25T18:31:27.415Z,1.10
2023-07-25T18:33:32.579Z,1.33
2023-07-25T18:35:44.935Z,1.10
2023-07-25T18:37:57.562Z,0.90
2023-07-25T18:40:04.065Z,0.85
2023-07-25T18:42:14.398Z,0.82
2023-07-25T18:44:25.313Z,1.08
2023-07-25T18:46:39.578Z,0.63
2023-07-25T18:48:47.912Z,1.17
2023-07-25T18:50:58.843Z,1.17
2023-07-25T18:53:07.645Z,1.08
2023-07-25T18:55:13.354Z,0.73
2023-07-25T18:57:27.196Z,1.02
2023-07-25T18:59:40.807Z,1.10
2023-07-25T19:01:47.369Z,1.42
2023-07-25T19:03:53.013Z,1.08
2023-07-25T19:06:00.045Z,0.90
2023-07-25T19:08:05.954Z,0.98
2023-07-25T19:10:17.048Z,1.20
2023-07-25T19:12:31.852Z,0.85
2023-07-25T19:14:42.213Z,1.10
2023-07-25T19:16:51.566Z,1.00
2023-07-25T19:19:02.353Z,0.85
2023-07-25T19:21:12.390Z,0.90
2023-07-25T19:23:25.928Z,1.20
2023-07-25T19:25:40.339Z,1.25
2023-07-25T19:30:03.278Z,0.98
2023-07-25T19:32:19.448Z,0.90
2023-07-25T19:34:25.124Z,1.23
2023-07-25T19:36:40.396Z,1.38
2023-07-25T19:38:47.933Z,1.08
2023-07-25T19:41:00.608Z,0.90
2023-07-25T19:43:10.623Z,1.00
2023-07-25T19:45:16.821Z,1.00
2023-07-25T19:47:24.981Z,0.82
2023-07-25T19:49:33.035Z,1.20
2023-07-25T19:51:53.059Z,1.05
2023-07-25T19:53:59.156Z,1.30
2023-07-25T19:56:07.718Z,1.30
2023-07-25T19:58:15.378Z,0.80
2023-07-25T20:00:26.748Z,1.00
2023-07-25T20:02:32.956Z,0.82
2023-07-25T20:04:50.120Z,1.20
2023-07-25T20:06:52.407Z,0.90
2023-07-25T20:09:06.795Z,0.80
2023-07-25T20:11:16.963Z,0.88
2023-07-25T20:13:34.179Z,0.88
2023-07-25T20:15:39.236Z,1.00
2023-07-25T20:17:45.311Z,1.00
2023-07-25T20:19:50.305Z,0.90
2023-07-25T20:21:56.804Z,0.85
2023-07-25T20:24:10.500Z,1.20
2023-07-25T20:26:17.265Z,0.93
2023-07-25T20:28:22.839Z,1.00
2023-07-25T20:30:55.701Z,1.08
2023-07-25T20:33:08.209Z,1.05
2023-07-25T20:35:16.590Z,0.80
2023-07-25T20:37:22.775Z,0.80
2023-07-25T20:39:42.134Z,0.80
2023-07-25T20:41:47.675Z,1.00
2023-07-25T20:43:50.035Z,1.10
2023-07-25T20:45:55.125Z,1.10
2023-07-25T20:48:02.818Z,1.05
2023-07-25T20:50:09.565Z,1.05
2023-07-25T20:52:14.570Z,1.63
2023-07-25T20:54:19.602Z,1.17
2023-07-25T20:56:24.651Z,1.10
2023-07-25T20:58:27.101Z,0.85
2023-07-25T21:00:32.286Z,1.10
2023-07-25T21:02:37.546Z,1.33
2023-07-25T21:04:45.139Z,1.15
2023-07-25T21:06:50.063Z,1.40
2023-07-25T21:08:54.964Z,1.58
2023-07-25T21:10:58.571Z,1.10
2023-07-25T21:13:03.540Z,1.45
2023-07-25T21:15:11.518Z,1.45
2023-07-25T21:17:16.422Z,1.52
2023-07-25T21:19:21.423Z,1.40
2023-07-25T21:21:29.053Z,1.00
2023-07-25T21:23:34.095Z,1.27
2023-07-25T21:25:40.244Z,1.30
2023-07-25T21:27:45.160Z,1.42
2023-07-25T21:29:50.672Z,1.20
2023-07-25T21:31:55.972Z,1.50
2023-07-25T21:34:02.664Z,1.35
2023-07-25T21:36:16.455Z,1.27
2023-07-25T21:38:24.079Z,0.70
2023-07-25T21:40:29.309Z,1.00
2023-07-25T21:42:34.294Z,0.75
2023-07-25T21:44:39.394Z,0.85
2023-07-25T21:46:41.968Z,0.98
2023-07-25T21:48:47.247Z,1.00
2023-07-25T21:50:52.172Z,0.98
2023-07-25T21:52:57.138Z,0.90
2023-07-25T21:55:04.636Z,1.10
2023-07-25T21:57:10.023Z,0.80
2023-07-25T21:59:15.776Z,1.00
2023-07-25T22:01:21.704Z,0.68
2023-07-25T22:03:26.760Z,0.77
2023-07-25T22:05:29.320Z,0.60
2023-07-25T22:07:34.220Z,0.82
2023-07-25T22:09:39.831Z,0.60
2023-07-25T22:11:47.557Z,0.90
2023-07-25T22:13:49.935Z,0.80
2023-07-25T22:15:54.984Z,0.82
2023-07-25T22:18:00.080Z,1.10
2023-07-25T22:20:02.610Z,0.90
2023-07-25T22:22:08.207Z,0.80
2023-07-25T22:24:13.256Z,0.57
2023-07-25T22:26:18.421Z,0.52
2023-07-25T22:28:26.014Z,0.70
2023-07-25T22:30:31.186Z,0.77
2023-07-25T22:32:36.561Z,0.50
2023-07-25T22:34:42.197Z,1.00
2023-07-25T22:36:47.088Z,0.82
2023-07-25T22:38:52.808Z,1.02
2023-07-25T22:40:57.753Z,0.85
2023-07-25T22:43:02.734Z,0.88
2023-07-25T22:45:11.214Z,0.85
2023-07-25T22:47:16.141Z,0.98
2023-07-25T22:49:21.060Z,1.00
2023-07-25T22:51:26.253Z,1.25
2023-07-25T22:53:31.166Z,1.33
2023-07-25T22:55:36.576Z,0.98
2023-07-25T22:57:41.444Z,0.88
2023-07-25T22:59:46.398Z,1.08
2023-07-25T23:01:54.468Z,1.30
2023-07-25T23:03:59.618Z,0.95
2023-07-25T23:06:04.576Z,1.20
2023-07-25T23:08:10.258Z,1.02
2023-07-25T23:10:16.153Z,1.02
2023-07-25T23:12:21.090Z,1.13
2023-07-25T23:14:25.993Z,1.10
2023-07-25T23:16:31.354Z,1.55
2023-07-25T23:18:39.126Z,1.15
2023-07-25T23:20:44.137Z,1.10
2023-07-25T23:22:48.985Z,1.25
2023-07-25T23:24:51.784Z,1.33
2023-07-25T23:29:01.710Z,1.23
2023-07-25T23:31:06.660Z,1.50
2023-07-25T23:33:11.710Z,1.40
2023-07-25T23:35:19.296Z,1.23
2023-07-25T23:37:24.534Z,1.27
2023-07-25T23:39:29.449Z,1.40
2023-07-25T23:41:34.580Z,1.20
2023-07-25T23:43:39.364Z,1.50
2023-07-25T23:45:44.267Z,1.60
2023-07-25T23:47:49.116Z,1.10
2023-07-25T23:49:51.451Z,0.98
2023-07-25T23:51:58.953Z,0.93
2023-07-25T23:54:03.883Z,1.10
2023-07-25T23:56:09.205Z,1.05
2023-07-25T23:58:14.019Z,1.45
